Wenonah, NJ (08090)

4:27 AM EDT on September 05, 2015 (GMT -0400)
Lakes At Bankbridge | | Change Station
CLOSE
Current Station
Personal Weather Station
Location: Wenonah, NJ
Elevation: 89 ft
Nearby Weather Stations

Elev 89 ft 39.79 °N, 75.14 °W | Updated 2 minutes ago

Mostly Cloudy
Mostly Cloudy
69.6 °F
Feels Like 69.6 °F
N
0.0
Wind Variable Wind from North
Gusts 3.0 mph

Today
High -- | Low -- °F
--% Chance of Precip.
Yesterday
High -- | Low -- °F
Precip. -- in
6:32 AM 7:25 PM
Waning Gibbous, 51% visible
Pressure 30.20 in
Visibility 10.0 miles
Clouds Mostly Cloudy 2300 ft
Overcast 9500 ft
Dew Point 64 °F
Humidity 84%
Rainfall 0.00 in
Snow Depth Not available.
UV 0 out of 12
Pollen 9.80 out of 12
Air Quality Not available.
Flu Activity Not available.
METAR KPHL 050754Z 06007KT 10SM BKN023 OVC095 23/18 A3020 RMK AO2 SLP225 T02280178 $
Pressure 30.20 in
Visibility 10.0 miles
Clouds Mostly Cloudy 2300 ft
Overcast 9500 ft
Dew Point 64 °F
Humidity 84%
Rainfall 0.00 in
Snow Depth Not available.
UV 0 out of 12
Pollen 9.80 out of 12
Air Quality Not available.
Flu Activity Not available.
METAR KPHL 050754Z 06007KT 10SM BKN023 OVC095 23/18 A3020 RMK AO2 SLP225 T02280178 $

10-Day Weather Forecast

×

Almanac

Astronomy

Sep. 05, 2015 Rise Set
Actual Time
Civil Twilight
Nautical Twilight
Astronomical Twilight
Moon
Length of Visible Light
Length of Day
Tomorrow will be .
, % of the Moon is Illuminated

Today's Extremes

State Highs State Lows

Community

WunderPhotos

Upload Photos

1,852,439 photos uploaded!

WunderBlogs® & News

Nearby

Air Quality

  Air Quality AQ Index Pollutant
Not available.

Snow Depth

Station Depth Elevation

Earthquake Activity

City Distance Mag. Time & Date
Minimum magnitude displayed is 2.5.

Coastal Water Temperatures

Place Temperature

Stations

Nearby Weather Stations

Station Location Temp. Windchill Dew Point Humidity Wind Precip. Elev Updated Type